Archival Weather

NSFA McMurdo Sound

NSFA McMurdo Sound, Antarctica (NZCM)

Report from: Friday, September 23, 2022 5:55 AM UTC
Current time: Sunday, December 4, 2022 11:51 AM UTC

Current weather
Weather history
Weather forecast

Present weatherLight snow
Temperature-18.3°C (-0.9°F)
Wind chill-22.7°C (-8.9°F)
Dew point-25.3°C (-13.5°F)
Winds 3 kts (1.5 m/s, 3.5 mph) Vrb
Winds variableWinds variable
Visibility3.7 mi. (6 km)
Clouds Ceiling: Overcast 3,300 ft. (1,006 m)
Altimeter28.62 in.Hg (969 mB)
Precip. events Snow began 5:50 AM
Relative humidity54 %
Density altitude-2,673 ft. (-815 m)
Sea-level pressure107.0 kPa (1070 mB, 31.59 in.Hg)
Max temp last 6 hours-17.8°C (-0.0°F)
Min temp last 6 hours-23.9°C (-11.0°F)
Remarks Fully automated report
System requires maintenance
Automated weather observing station with precipitation discriminator
Pressure falling more slowly
Flight conditions Marginal Visual Meteorological Conditions
Raw dataNZCM 230555Z AUTO VRB03KT 6000 -SN OVC033 M18/M25 A2862 RMK AO2 SNB0550 SLP698 T11831253 11178 21239 56011 $
An error has occurred. This application may no longer respond until reloaded. Reload 🗙